createdAt,value
2018-03-03T00:00:04.881Z,988.18
2018-03-03T00:01:04.851Z,988.18
2018-03-03T00:02:04.824Z,988.18
2018-03-03T00:03:04.782Z,988.17
2018-03-03T00:04:04.747Z,988.12
2018-03-03T00:05:04.794Z,988.12
2018-03-03T00:06:04.715Z,988.12
2018-03-03T00:07:04.679Z,988.06
2018-03-03T00:08:04.663Z,988.02
2018-03-03T00:09:04.659Z,988.04
2018-03-03T00:10:04.623Z,988.01
2018-03-03T00:11:04.629Z,988.00
2018-03-03T00:12:04.570Z,987.97
2018-03-03T00:13:04.557Z,987.97
2018-03-03T00:14:04.529Z,987.98
2018-03-03T00:15:04.580Z,987.96
2018-03-03T00:16:04.482Z,988.01
2018-03-03T00:17:04.455Z,987.98
2018-03-03T00:18:04.440Z,987.97
2018-03-03T00:19:04.418Z,987.97
2018-03-03T00:20:04.385Z,988.02
2018-03-03T00:21:04.416Z,988.01
2018-03-03T00:22:04.341Z,987.99
2018-03-03T00:23:04.331Z,987.98
2018-03-03T00:24:04.302Z,987.97
2018-03-03T00:25:04.324Z,987.95
2018-03-03T00:26:04.263Z,987.95
2018-03-03T00:27:04.238Z,987.93
2018-03-03T00:28:04.300Z,987.87
2018-03-03T00:29:04.193Z,987.90
2018-03-03T00:30:04.177Z,987.91
2018-03-03T00:31:04.146Z,987.90
2018-03-03T00:32:04.122Z,987.93
2018-03-03T00:33:04.097Z,987.93
2018-03-03T00:34:04.154Z,987.94
2018-03-03T00:35:04.096Z,987.86
2018-03-03T00:36:04.023Z,987.91
2018-03-03T00:37:04.027Z,987.87
2018-03-03T00:38:03.978Z,987.91
2018-03-03T00:39:03.975Z,987.91
2018-03-03T00:40:03.999Z,987.87
2018-03-03T00:41:03.972Z,987.86
2018-03-03T00:42:03.885Z,987.87
2018-03-03T00:43:03.902Z,987.85
2018-03-03T00:44:03.856Z,987.83
2018-03-03T00:45:03.842Z,987.84
2018-03-03T00:46:03.962Z,987.81
2018-03-03T00:47:03.789Z,987.81
2018-03-03T00:48:03.751Z,987.78
2018-03-03T00:49:03.748Z,987.78
2018-03-03T00:50:03.722Z,987.76
2018-03-03T00:51:03.734Z,987.80
2018-03-03T00:52:03.681Z,987.80
2018-03-03T00:53:03.652Z,987.83
2018-03-03T00:54:03.658Z,987.79
2018-03-03T00:55:04.757Z,987.75
2018-03-03T00:56:03.586Z,987.73
2018-03-03T00:57:03.562Z,987.76
2018-03-03T00:58:03.574Z,987.74
2018-03-03T00:59:03.554Z,987.72
2018-03-03T01:00:03.480Z,987.81
2018-03-03T01:01:03.471Z,987.77
2018-03-03T01:02:03.447Z,987.77
2018-03-03T01:03:03.442Z,987.76
2018-03-03T01:04:03.469Z,987.83
2018-03-03T01:05:03.374Z,987.81
2018-03-03T01:06:03.361Z,987.80
2018-03-03T01:07:03.320Z,987.81
2018-03-03T01:08:03.298Z,987.82
2018-03-03T01:09:03.279Z,987.85
2018-03-03T01:10:03.304Z,987.81
2018-03-03T01:11:03.240Z,987.73
2018-03-03T01:12:03.289Z,987.75
2018-03-03T01:13:03.195Z,987.69
2018-03-03T01:14:03.190Z,987.70
2018-03-03T01:15:03.161Z,987.69
2018-03-03T01:16:03.116Z,987.70
2018-03-03T01:17:03.092Z,987.69
2018-03-03T01:18:03.084Z,987.64
2018-03-03T01:19:03.089Z,987.66
2018-03-03T01:20:03.058Z,987.64
2018-03-03T01:21:03.052Z,987.63
2018-03-03T01:22:02.987Z,987.63
2018-03-03T01:23:02.967Z,987.67
2018-03-03T01:24:02.934Z,987.61
2018-03-03T01:25:04.056Z,987.65
2018-03-03T01:26:02.898Z,987.65
2018-03-03T01:27:02.929Z,987.64
2018-03-03T01:28:02.864Z,987.67
2018-03-03T01:29:02.822Z,987.62
2018-03-03T01:30:02.803Z,987.67
2018-03-03T01:31:02.781Z,987.62
2018-03-03T01:32:02.768Z,987.70
2018-03-03T01:33:02.745Z,987.70
2018-03-03T01:34:02.713Z,987.69
2018-03-03T01:35:02.689Z,987.65
2018-03-03T01:36:02.694Z,987.65
2018-03-03T01:37:02.679Z,987.65
2018-03-03T01:38:02.662Z,987.65
2018-03-03T01:39:02.601Z,987.63
2018-03-03T01:40:02.579Z,987.68
2018-03-03T01:41:02.549Z,987.64
2018-03-03T01:42:02.536Z,987.63
2018-03-03T01:43:02.555Z,987.63
2018-03-03T01:44:02.488Z,987.61
2018-03-03T01:45:02.464Z,987.57
2018-03-03T01:46:02.484Z,987.59
2018-03-03T01:47:02.414Z,987.58
2018-03-03T01:48:02.397Z,987.58
2018-03-03T01:49:02.403Z,987.58
2018-03-03T01:50:02.373Z,987.52
2018-03-03T01:51:02.396Z,987.51
2018-03-03T01:52:02.296Z,987.49
2018-03-03T01:53:02.275Z,987.51
2018-03-03T01:54:02.259Z,987.49
2018-03-03T01:55:02.231Z,987.52
2018-03-03T01:56:02.202Z,987.52
2018-03-03T01:57:02.227Z,987.51
2018-03-03T01:58:02.178Z,987.54
2018-03-03T01:59:02.170Z,987.54
2018-03-03T02:00:02.119Z,987.50
2018-03-03T02:01:02.126Z,987.48
2018-03-03T02:02:02.115Z,987.51
2018-03-03T02:03:02.067Z,987.50
2018-03-03T02:04:02.030Z,987.47
2018-03-03T02:05:02.002Z,987.47
2018-03-03T02:06:01.987Z,987.48
2018-03-03T02:07:01.993Z,987.42
2018-03-03T02:08:02.917Z,987.43
2018-03-03T02:09:01.918Z,987.49
2018-03-03T02:10:01.898Z,987.46
2018-03-03T02:11:01.952Z,987.47
2018-03-03T02:12:01.855Z,987.47
2018-03-03T02:13:01.826Z,987.48
2018-03-03T02:14:01.807Z,987.50
2018-03-03T02:15:01.780Z,987.45
2018-03-03T02:16:01.764Z,987.51
2018-03-03T02:17:01.737Z,987.45
2018-03-03T02:18:01.718Z,987.43
2018-03-03T02:19:01.739Z,987.40
2018-03-03T02:20:01.688Z,987.44
2018-03-03T02:21:01.655Z,987.42
2018-03-03T02:22:01.692Z,987.41
2018-03-03T02:23:01.590Z,987.41
2018-03-03T02:24:01.573Z,987.40
2018-03-03T02:25:01.577Z,987.41
2018-03-03T02:26:01.518Z,987.42
2018-03-03T02:27:01.494Z,987.41
2018-03-03T02:28:01.933Z,987.39
2018-03-03T02:29:01.452Z,987.34
2018-03-03T02:30:01.439Z,987.37
2018-03-03T02:31:01.420Z,987.38
2018-03-03T02:32:01.392Z,987.39
2018-03-03T02:33:01.376Z,987.38
2018-03-03T02:34:01.385Z,987.41
2018-03-03T02:35:01.331Z,987.36
2018-03-03T02:36:01.292Z,987.42
2018-03-03T02:37:01.272Z,987.40
2018-03-03T02:38:01.255Z,987.37
2018-03-03T02:39:01.220Z,987.36
2018-03-03T02:40:01.249Z,987.37
2018-03-03T02:41:01.187Z,987.36
2018-03-03T02:42:01.164Z,987.36
2018-03-03T02:43:01.139Z,987.31
2018-03-03T02:44:01.114Z,987.32
2018-03-03T02:45:01.139Z,987.35
2018-03-03T02:46:01.116Z,987.32
2018-03-03T02:47:01.050Z,987.29
2018-03-03T02:48:01.019Z,987.31
2018-03-03T02:49:01.023Z,987.31
2018-03-03T02:50:00.980Z,987.29
2018-03-03T02:51:00.981Z,987.29
2018-03-03T02:52:00.945Z,987.33
2018-03-03T02:53:00.951Z,987.34
2018-03-03T02:54:00.894Z,987.27
2018-03-03T02:55:00.871Z,987.30
2018-03-03T02:56:00.847Z,987.29
2018-03-03T02:57:00.816Z,987.30
2018-03-03T02:58:00.806Z,987.33
2018-03-03T02:59:00.783Z,987.33
2018-03-03T03:00:00.750Z,987.26
2018-03-03T03:01:00.796Z,987.30
2018-03-03T03:02:00.704Z,987.32
2018-03-03T03:03:00.696Z,987.30
2018-03-03T03:04:00.662Z,987.29
2018-03-03T03:05:00.636Z,987.25
2018-03-03T03:06:00.619Z,987.26
2018-03-03T03:07:00.594Z,987.22
2018-03-03T03:08:00.561Z,987.23
2018-03-03T03:09:00.550Z,987.27
2018-03-03T03:10:00.527Z,987.22
2018-03-03T03:11:00.503Z,987.26
2018-03-03T03:12:00.544Z,987.23
2018-03-03T03:13:00.466Z,987.23
2018-03-03T03:14:00.425Z,987.26
2018-03-03T03:15:00.405Z,987.21
2018-03-03T03:16:00.377Z,987.18
2018-03-03T03:17:00.363Z,987.20
2018-03-03T03:18:00.383Z,987.16
2018-03-03T03:19:00.317Z,987.16
2018-03-03T03:20:00.300Z,987.16
2018-03-03T03:21:00.298Z,987.16
2018-03-03T03:22:00.239Z,987.17
2018-03-03T03:23:00.257Z,987.11
2018-03-03T03:24:00.201Z,987.12
2018-03-03T03:25:00.177Z,987.12
2018-03-03T03:26:00.166Z,987.09
2018-03-03T03:27:00.141Z,987.09
2018-03-03T03:28:00.119Z,987.06
2018-03-03T03:29:00.124Z,987.05
2018-03-03T03:30:00.065Z,987.05
2018-03-03T03:31:00.057Z,987.00
2018-03-03T03:32:00.066Z,987.02
2018-03-03T03:32:59.992Z,987.05
2018-03-03T03:33:59.969Z,987.03
2018-03-03T03:34:59.952Z,987.06
2018-03-03T03:35:59.931Z,987.13
2018-03-03T03:36:59.916Z,987.09
2018-03-03T03:37:59.922Z,987.06
2018-03-03T03:38:59.887Z,987.11
2018-03-03T03:39:59.838Z,987.08
2018-03-03T03:40:59.820Z,987.07
2018-03-03T03:41:59.798Z,987.07
2018-03-03T03:42:59.761Z,987.01
2018-03-03T03:43:59.746Z,987.04
2018-03-03T03:44:59.789Z,987.02
2018-03-03T03:45:59.695Z,986.99
2018-03-03T03:46:59.681Z,987.03
2018-03-03T03:47:59.664Z,987.02
2018-03-03T03:48:59.618Z,987.02
2018-03-03T03:49:59.605Z,986.99
2018-03-03T03:50:59.616Z,986.99
2018-03-03T03:51:59.549Z,986.94
2018-03-03T03:52:59.554Z,986.97
2018-03-03T03:53:59.517Z,986.97
2018-03-03T03:54:59.501Z,986.94
2018-03-03T03:55:59.535Z,986.90
2018-03-03T03:56:59.441Z,986.93
2018-03-03T03:57:59.420Z,986.95
2018-03-03T03:58:59.405Z,986.93
2018-03-03T03:59:59.387Z,986.95
2018-03-03T04:00:59.353Z,986.92
2018-03-03T04:01:59.387Z,986.86
2018-03-03T04:02:59.309Z,986.83
2018-03-03T04:03:59.271Z,986.81
2018-03-03T04:04:59.262Z,986.84
2018-03-03T04:05:59.245Z,986.82
2018-03-03T04:06:59.224Z,986.79
2018-03-03T04:07:59.203Z,986.78
2018-03-03T04:08:59.167Z,986.81
2018-03-03T04:09:59.146Z,986.82
2018-03-03T04:10:59.128Z,986.81
2018-03-03T04:11:59.114Z,986.84
2018-03-03T04:12:59.114Z,986.83
2018-03-03T04:13:59.058Z,986.80
2018-03-03T04:14:59.031Z,986.86
2018-03-03T04:15:59.021Z,986.90
2018-03-03T04:16:58.978Z,986.84
2018-03-03T04:17:59.023Z,986.89
2018-03-03T04:18:58.948Z,986.84
2018-03-03T04:19:58.913Z,986.86
2018-03-03T04:20:58.882Z,986.85
2018-03-03T04:21:58.866Z,986.84
2018-03-03T04:22:58.857Z,986.85
2018-03-03T04:23:58.856Z,986.83
2018-03-03T04:24:58.835Z,986.79
2018-03-03T04:25:58.774Z,986.73
2018-03-03T04:26:58.764Z,986.77
2018-03-03T04:27:58.730Z,986.76
2018-03-03T04:28:58.753Z,986.72
2018-03-03T04:29:58.694Z,986.74
2018-03-03T04:30:58.699Z,986.76
2018-03-03T04:31:58.628Z,986.73
2018-03-03T04:32:58.618Z,986.74
2018-03-03T04:33:58.598Z,986.79
2018-03-03T04:34:58.624Z,986.76
2018-03-03T04:35:58.537Z,986.73
2018-03-03T04:36:58.513Z,986.76
2018-03-03T04:37:58.496Z,986.74
2018-03-03T04:38:58.466Z,986.68
2018-03-03T04:39:58.461Z,986.63
2018-03-03T04:40:58.420Z,986.59
2018-03-03T04:41:58.398Z,986.58
2018-03-03T04:42:58.384Z,986.54
2018-03-03T04:43:58.354Z,986.53
2018-03-03T04:44:58.332Z,986.59
2018-03-03T04:45:58.333Z,986.56
2018-03-03T04:46:58.277Z,986.58
2018-03-03T04:47:58.252Z,986.58
2018-03-03T04:48:58.236Z,986.52
2018-03-03T04:49:58.215Z,986.52
2018-03-03T04:50:58.195Z,986.56
2018-03-03T04:51:58.161Z,986.57
2018-03-03T04:52:58.154Z,986.51
2018-03-03T04:53:58.126Z,986.47
2018-03-03T04:54:58.101Z,986.51
2018-03-03T04:55:58.080Z,986.48
2018-03-03T04:56:58.043Z,986.47
2018-03-03T04:57:58.034Z,986.46
2018-03-03T04:58:57.998Z,986.46
2018-03-03T04:59:58.015Z,986.44
2018-03-03T05:00:57.962Z,986.46
2018-03-03T05:01:57.936Z,986.42
2018-03-03T05:02:57.917Z,986.44
2018-03-03T05:03:57.885Z,986.41
2018-03-03T05:04:57.892Z,986.49
2018-03-03T05:05:57.838Z,986.44
2018-03-03T05:06:57.814Z,986.41
2018-03-03T05:07:57.795Z,986.44
2018-03-03T05:08:57.776Z,986.43
2018-03-03T05:09:57.777Z,986.48
2018-03-03T05:10:57.725Z,986.43
2018-03-03T05:11:57.700Z,986.43
2018-03-03T05:12:57.686Z,986.45
2018-03-03T05:13:57.660Z,986.47
2018-03-03T05:14:57.640Z,986.42
2018-03-03T05:15:57.612Z,986.40
2018-03-03T05:16:57.584Z,986.37
2018-03-03T05:17:57.617Z,986.41
2018-03-03T05:18:57.541Z,986.34
2018-03-03T05:19:57.525Z,986.35
2018-03-03T05:20:57.492Z,986.37
2018-03-03T05:21:57.469Z,986.40
2018-03-03T05:22:57.443Z,986.37
2018-03-03T05:23:57.421Z,986.38
2018-03-03T05:24:57.455Z,986.40
2018-03-03T05:25:57.386Z,986.38
2018-03-03T05:26:57.358Z,986.36
2018-03-03T05:27:57.336Z,986.38
2018-03-03T05:28:57.308Z,986.42
2018-03-03T05:29:57.286Z,986.38
2018-03-03T05:30:57.288Z,986.39
2018-03-03T05:31:57.232Z,986.39
2018-03-03T05:32:57.216Z,986.41
2018-03-03T05:33:57.200Z,986.41
2018-03-03T05:34:57.213Z,986.34
2018-03-03T05:35:57.142Z,986.35
2018-03-03T05:36:57.118Z,986.39
2018-03-03T05:37:57.103Z,986.36
2018-03-03T05:38:57.079Z,986.36
2018-03-03T05:39:57.049Z,986.35
2018-03-03T05:40:57.040Z,986.37
2018-03-03T05:41:57.009Z,986.36
2018-03-03T05:42:56.983Z,986.33
2018-03-03T05:43:56.994Z,986.35
2018-03-03T05:44:56.941Z,986.34
2018-03-03T05:45:56.976Z,986.33
2018-03-03T05:46:56.884Z,986.29
2018-03-03T05:47:56.869Z,986.29
2018-03-03T05:48:56.840Z,986.24
2018-03-03T05:49:56.816Z,986.28
2018-03-03T05:50:56.802Z,986.26
2018-03-03T05:51:56.821Z,986.28
2018-03-03T05:52:56.746Z,986.27
2018-03-03T05:53:56.758Z,986.26
2018-03-03T05:54:56.708Z,986.28
2018-03-03T05:55:56.745Z,986.28
2018-03-03T05:56:56.662Z,986.30
2018-03-03T05:57:56.629Z,986.30
2018-03-03T05:58:56.603Z,986.28
2018-03-03T05:59:56.584Z,986.27
2018-03-03T06:00:56.570Z,986.25
2018-03-03T06:01:56.565Z,986.24
2018-03-03T06:02:56.518Z,986.25
2018-03-03T06:03:56.491Z,986.29
2018-03-03T06:04:56.476Z,986.39
2018-03-03T06:05:56.449Z,986.41
2018-03-03T06:06:56.481Z,986.40
2018-03-03T06:07:56.391Z,986.42
2018-03-03T06:08:56.382Z,986.43
2018-03-03T06:09:56.360Z,986.41
2018-03-03T06:10:56.330Z,986.42
2018-03-03T06:11:56.310Z,986.39
2018-03-03T06:12:56.340Z,986.41
2018-03-03T06:13:56.252Z,986.41
2018-03-03T06:14:56.244Z,986.46
2018-03-03T06:15:56.216Z,986.45
2018-03-03T06:16:56.200Z,986.46
2018-03-03T06:17:56.167Z,986.48
2018-03-03T06:18:56.152Z,986.49
2018-03-03T06:19:56.182Z,986.53
2018-03-03T06:20:56.098Z,986.54
2018-03-03T06:21:56.074Z,986.54
2018-03-03T06:22:56.050Z,986.51
2018-03-03T06:23:56.030Z,986.54
2018-03-03T06:24:56.010Z,986.49
2018-03-03T06:25:55.982Z,986.48
2018-03-03T06:26:55.952Z,986.49
2018-03-03T06:27:55.930Z,986.46
2018-03-03T06:28:55.908Z,986.45
2018-03-03T06:29:55.888Z,986.45
2018-03-03T06:30:55.871Z,986.45
2018-03-03T06:31:55.834Z,986.44
2018-03-03T06:32:55.814Z,986.43
2018-03-03T06:33:55.805Z,986.45
2018-03-03T06:34:56.060Z,986.41
2018-03-03T06:35:55.789Z,986.42
2018-03-03T06:36:55.728Z,986.46
2018-03-03T06:37:55.711Z,986.45
2018-03-03T06:38:55.677Z,986.44
2018-03-03T06:39:55.650Z,986.45
2018-03-03T06:40:55.627Z,986.44
2018-03-03T06:41:55.602Z,986.47
2018-03-03T06:42:55.643Z,986.46
2018-03-03T06:43:55.569Z,986.43
2018-03-03T06:44:55.542Z,986.43
2018-03-03T06:45:55.514Z,986.41
2018-03-03T06:46:55.485Z,986.44
2018-03-03T06:47:55.464Z,986.47
2018-03-03T06:48:55.467Z,986.47
2018-03-03T06:49:55.457Z,986.38
2018-03-03T06:50:55.397Z,986.42
2018-03-03T06:51:55.379Z,986.41
2018-03-03T06:52:55.355Z,986.44
2018-03-03T06:53:55.336Z,986.43
2018-03-03T06:54:55.358Z,986.45
2018-03-03T06:55:55.293Z,986.44
2018-03-03T06:56:55.271Z,986.47
2018-03-03T06:57:55.232Z,986.46
2018-03-03T06:58:55.210Z,986.46
2018-03-03T06:59:55.184Z,986.50
2018-03-03T07:00:55.175Z,986.54
2018-03-03T07:01:55.165Z,986.46
2018-03-03T07:02:55.113Z,986.50
2018-03-03T07:03:55.090Z,986.49
2018-03-03T07:04:55.363Z,986.52
2018-03-03T07:05:55.124Z,986.46
2018-03-03T07:06:55.023Z,986.45
2018-03-03T07:07:54.992Z,986.43
2018-03-03T07:08:54.975Z,986.45
2018-03-03T07:09:54.951Z,986.48
2018-03-03T07:10:54.931Z,986.55
2018-03-03T07:11:54.950Z,986.50
2018-03-03T07:12:54.889Z,986.50
2018-03-03T07:13:54.864Z,986.56
2018-03-03T07:14:54.837Z,986.55
2018-03-03T07:15:54.834Z,986.54
2018-03-03T07:16:54.799Z,986.54
2018-03-03T07:17:54.791Z,986.54
2018-03-03T07:18:54.749Z,986.55
2018-03-03T07:19:54.714Z,986.60
2018-03-03T07:20:54.702Z,986.57
2018-03-03T07:21:54.677Z,986.59
2018-03-03T07:22:54.707Z,986.60
2018-03-03T07:23:54.636Z,986.59
2018-03-03T07:24:54.621Z,986.63
2018-03-03T07:25:54.582Z,986.65
2018-03-03T07:26:54.554Z,986.67
2018-03-03T07:27:54.547Z,986.67
2018-03-03T07:28:54.579Z,986.70
2018-03-03T07:29:54.498Z,986.70
2018-03-03T07:30:54.482Z,986.66
2018-03-03T07:31:54.451Z,986.71
2018-03-03T07:32:54.431Z,986.68
2018-03-03T07:33:54.397Z,986.67
2018-03-03T07:34:54.381Z,986.69
2018-03-03T07:35:54.360Z,986.65
2018-03-03T07:36:54.338Z,986.71
2018-03-03T07:37:54.323Z,986.66
2018-03-03T07:38:54.283Z,986.72
2018-03-03T07:39:54.289Z,986.72
2018-03-03T07:40:54.241Z,986.74
2018-03-03T07:41:54.256Z,986.74
2018-03-03T07:42:54.200Z,986.72
2018-03-03T07:43:54.187Z,986.73
2018-03-03T07:44:54.179Z,986.74
2018-03-03T07:45:54.126Z,986.73
2018-03-03T07:46:54.191Z,986.81
2018-03-03T07:47:54.085Z,986.77
2018-03-03T07:48:54.070Z,986.74
2018-03-03T07:49:54.043Z,986.79
2018-03-03T07:50:54.021Z,986.77
2018-03-03T07:51:54.049Z,986.76
2018-03-03T07:52:53.978Z,986.72
2018-03-03T07:53:53.946Z,986.70
2018-03-03T07:54:53.952Z,986.77
2018-03-03T07:55:53.910Z,986.69
2018-03-03T07:56:53.885Z,986.67
2018-03-03T07:57:53.891Z,986.70
2018-03-03T07:58:53.848Z,986.68
2018-03-03T07:59:53.818Z,986.69
2018-03-03T08:00:53.794Z,986.68
2018-03-03T08:01:53.776Z,986.72
2018-03-03T08:02:53.802Z,986.76
2018-03-03T08:03:53.719Z,986.78
2018-03-03T08:04:53.716Z,986.76
2018-03-03T08:05:53.691Z,986.77
2018-03-03T08:06:53.668Z,986.76
2018-03-03T08:07:53.641Z,986.76
2018-03-03T08:08:53.659Z,986.81
2018-03-03T08:09:53.587Z,986.83
2018-03-03T08:10:53.569Z,986.83
2018-03-03T08:11:53.557Z,986.85
2018-03-03T08:12:53.592Z,986.83
2018-03-03T08:13:53.517Z,986.81
2018-03-03T08:14:53.487Z,986.85
2018-03-03T08:15:53.482Z,986.85
2018-03-03T08:16:53.441Z,986.83
2018-03-03T08:17:53.450Z,986.86
2018-03-03T08:18:53.403Z,986.86
2018-03-03T08:19:53.371Z,986.88
2018-03-03T08:20:53.400Z,986.82
2018-03-03T08:21:53.330Z,986.84
2018-03-03T08:22:53.369Z,986.85
2018-03-03T08:23:53.292Z,986.87
2018-03-03T08:24:53.259Z,986.85
2018-03-03T08:25:53.242Z,986.83
2018-03-03T08:26:53.209Z,986.92
2018-03-03T08:27:53.189Z,986.85
2018-03-03T08:28:53.211Z,986.90
2018-03-03T08:29:53.150Z,986.94
2018-03-03T08:30:53.187Z,986.90
2018-03-03T08:31:53.103Z,986.88
2018-03-03T08:32:53.094Z,986.84
2018-03-03T08:33:53.062Z,986.90
2018-03-03T08:34:53.043Z,986.93
2018-03-03T08:35:53.015Z,986.93
2018-03-03T08:36:53.007Z,986.92
2018-03-03T08:37:52.971Z,986.92
2018-03-03T08:38:52.990Z,986.90
2018-03-03T08:39:52.927Z,986.93
2018-03-03T08:40:52.920Z,986.91
2018-03-03T08:41:52.895Z,986.86
2018-03-03T08:42:52.921Z,986.87
2018-03-03T08:43:52.859Z,986.94
2018-03-03T08:44:52.866Z,986.87
2018-03-03T08:45:52.813Z,986.86
2018-03-03T08:46:52.782Z,986.87
2018-03-03T08:47:52.760Z,986.90
2018-03-03T08:48:52.735Z,986.88
2018-03-03T08:49:52.774Z,986.88
2018-03-03T08:50:52.693Z,986.88
2018-03-03T08:51:53.245Z,986.87
2018-03-03T08:52:52.649Z,986.87
2018-03-03T08:53:52.682Z,986.86
2018-03-03T08:54:52.611Z,986.84
2018-03-03T08:55:52.624Z,986.86
2018-03-03T08:56:52.626Z,986.83
2018-03-03T08:57:52.555Z,986.83
2018-03-03T08:58:52.521Z,986.84
2018-03-03T08:59:52.492Z,986.81
2018-03-03T09:00:52.499Z,986.83
2018-03-03T09:01:52.466Z,986.82
2018-03-03T09:02:52.487Z,986.83
2018-03-03T09:03:52.423Z,986.80
2018-03-03T09:04:52.397Z,986.82
2018-03-03T09:05:52.378Z,986.80
2018-03-03T09:06:52.344Z,986.83
2018-03-03T09:07:52.337Z,986.82
2018-03-03T09:08:52.321Z,986.79
2018-03-03T09:09:52.326Z,986.82
2018-03-03T09:10:52.269Z,986.76
2018-03-03T09:11:52.269Z,986.74
2018-03-03T09:12:52.217Z,986.71
2018-03-03T09:13:52.242Z,986.70
2018-03-03T09:14:52.183Z,986.75
2018-03-03T09:15:52.168Z,986.77
2018-03-03T09:16:52.143Z,986.71
2018-03-03T09:17:52.122Z,986.75
2018-03-03T09:18:52.125Z,986.76
2018-03-03T09:19:52.079Z,986.73
2018-03-03T09:20:52.058Z,986.75
2018-03-03T09:21:52.044Z,986.75
2018-03-03T09:22:52.020Z,986.66
2018-03-03T09:23:51.997Z,986.69
2018-03-03T09:24:52.004Z,986.66
2018-03-03T09:25:51.965Z,986.67
2018-03-03T09:26:51.924Z,986.70
2018-03-03T09:27:51.911Z,986.70
2018-03-03T09:28:51.931Z,986.68
2018-03-03T09:29:51.868Z,986.68
2018-03-03T09:30:51.849Z,986.69
2018-03-03T09:31:51.866Z,986.67
2018-03-03T09:32:51.816Z,986.71
2018-03-03T09:33:51.800Z,986.68
2018-03-03T09:34:51.852Z,986.65
2018-03-03T09:35:51.776Z,986.69
2018-03-03T09:36:51.737Z,986.68
2018-03-03T09:37:51.739Z,986.72
2018-03-03T09:38:51.722Z,986.77
2018-03-03T09:39:51.677Z,986.71
2018-03-03T09:40:51.665Z,986.72
2018-03-03T09:41:51.682Z,986.73
2018-03-03T09:42:51.606Z,986.74
2018-03-03T09:43:51.594Z,986.72
2018-03-03T09:44:51.568Z,986.71
2018-03-03T09:45:51.556Z,986.67
2018-03-03T09:46:51.532Z,986.69
2018-03-03T09:47:51.552Z,986.64
2018-03-03T09:48:51.517Z,986.66
2018-03-03T09:49:51.477Z,986.68
2018-03-03T09:50:51.447Z,986.68
2018-03-03T09:51:51.426Z,986.73
2018-03-03T09:52:51.470Z,986.78
2018-03-03T09:53:51.397Z,986.71
2018-03-03T09:54:51.374Z,986.68
2018-03-03T09:55:51.360Z,986.71
2018-03-03T09:56:51.333Z,986.70
2018-03-03T09:57:51.311Z,986.73
2018-03-03T09:58:51.347Z,986.69
2018-03-03T09:59:51.277Z,986.67
2018-03-03T10:00:51.252Z,986.63
2018-03-03T10:01:58.933Z,986.67
2018-03-03T10:02:51.219Z,986.66
2018-03-03T10:03:51.253Z,986.64
2018-03-03T10:04:51.176Z,986.57
2018-03-03T10:05:51.168Z,986.65
2018-03-03T10:06:51.129Z,986.68
2018-03-03T10:07:51.112Z,986.67
2018-03-03T10:08:51.103Z,986.73
2018-03-03T10:09:51.105Z,986.70
2018-03-03T10:10:51.089Z,986.71
2018-03-03T10:11:51.040Z,986.72
2018-03-03T10:12:51.022Z,986.68
2018-03-03T10:13:51.007Z,986.78
2018-03-03T10:14:51.012Z,986.79
2018-03-03T10:15:50.954Z,986.82
2018-03-03T10:16:50.938Z,986.85
2018-03-03T10:17:50.930Z,986.88
2018-03-03T10:18:50.907Z,986.84
2018-03-03T10:19:50.883Z,986.83
2018-03-03T10:20:50.892Z,986.83
2018-03-03T10:21:50.852Z,986.87
2018-03-03T10:22:50.832Z,986.84
2018-03-03T10:23:50.814Z,986.88
2018-03-03T10:24:50.785Z,986.83
2018-03-03T10:25:50.822Z,986.84
2018-03-03T10:26:50.750Z,986.90
2018-03-03T10:27:50.728Z,986.96
2018-03-03T10:28:50.709Z,986.91
2018-03-03T10:29:50.727Z,986.96
2018-03-03T10:30:50.670Z,986.95
2018-03-03T10:31:50.710Z,986.97
2018-03-03T10:32:50.634Z,986.98
2018-03-03T10:33:50.621Z,986.94
2018-03-03T10:34:50.607Z,986.97
2018-03-03T10:35:50.582Z,987.00
2018-03-03T10:36:50.552Z,986.96
2018-03-03T10:37:50.556Z,986.93
2018-03-03T10:38:50.530Z,986.96
2018-03-03T10:39:50.552Z,986.97
2018-03-03T10:40:50.492Z,986.96
2018-03-03T10:41:50.459Z,987.01
2018-03-03T10:42:50.457Z,987.01
2018-03-03T10:43:50.436Z,986.97
2018-03-03T10:44:50.421Z,987.00
2018-03-03T10:45:50.397Z,986.97
2018-03-03T10:46:50.376Z,986.98
2018-03-03T10:47:50.382Z,986.91
2018-03-03T10:48:50.343Z,987.02
2018-03-03T10:49:50.338Z,986.99
2018-03-03T10:50:50.376Z,987.06
2018-03-03T10:51:50.284Z,987.04
2018-03-03T10:52:50.334Z,987.04
2018-03-03T10:53:50.255Z,987.02
2018-03-03T10:54:50.228Z,987.03
2018-03-03T10:55:50.211Z,987.03
2018-03-03T10:56:50.208Z,987.03
2018-03-03T10:57:50.175Z,986.98
2018-03-03T10:58:50.202Z,986.99
2018-03-03T10:59:50.149Z,987.00
2018-03-03T11:00:50.130Z,987.00
2018-03-03T11:01:50.111Z,987.02
2018-03-03T11:02:50.097Z,987.02
2018-03-03T11:03:50.132Z,987.02
2018-03-03T11:04:50.055Z,986.97
2018-03-03T11:05:50.038Z,986.95
2018-03-03T11:06:50.027Z,986.96
2018-03-03T11:07:50.003Z,986.97
2018-03-03T11:08:49.998Z,986.97
2018-03-03T11:09:49.981Z,986.98
2018-03-03T11:10:49.959Z,986.96
2018-03-03T11:11:49.959Z,986.92
2018-03-03T11:12:49.928Z,986.91
2018-03-03T11:13:49.903Z,986.92
2018-03-03T11:14:49.887Z,986.95
2018-03-03T11:15:49.935Z,986.91
2018-03-03T11:16:49.856Z,986.85
2018-03-03T11:17:49.839Z,986.87
2018-03-03T11:18:49.818Z,986.83
2018-03-03T11:19:49.805Z,986.90
2018-03-03T11:20:49.786Z,986.86
2018-03-03T11:21:49.771Z,986.88
2018-03-03T11:22:49.748Z,986.91
2018-03-03T11:23:49.734Z,987.01
2018-03-03T11:24:49.706Z,986.99
2018-03-03T11:25:49.692Z,986.99
2018-03-03T11:26:49.694Z,986.97
2018-03-03T11:27:49.732Z,986.99
2018-03-03T11:28:49.644Z,986.92
2018-03-03T11:29:49.626Z,986.91
2018-03-03T11:30:49.615Z,986.96
2018-03-03T11:31:49.596Z,986.92
2018-03-03T11:32:49.585Z,986.99
2018-03-03T11:33:49.593Z,986.96
2018-03-03T11:34:49.582Z,986.95
2018-03-03T11:35:49.533Z,986.95
2018-03-03T11:36:49.527Z,986.92
2018-03-03T11:37:49.577Z,986.95
2018-03-03T11:38:49.500Z,986.98
2018-03-03T11:39:49.481Z,986.99
2018-03-03T11:40:49.455Z,986.99
2018-03-03T11:41:49.439Z,986.93
2018-03-03T11:42:49.424Z,986.91
2018-03-03T11:43:49.415Z,986.91
2018-03-03T11:44:49.400Z,986.90
2018-03-03T11:45:49.380Z,986.97
2018-03-03T11:46:49.360Z,986.93
2018-03-03T11:47:49.351Z,986.90
2018-03-03T11:48:49.366Z,986.91
2018-03-03T11:49:49.325Z,986.96
2018-03-03T11:50:49.329Z,987.02
2018-03-03T11:51:49.293Z,987.09
2018-03-03T11:52:49.276Z,987.05
2018-03-03T11:53:49.260Z,987.04
2018-03-03T11:54:49.281Z,987.02
2018-03-03T11:55:49.236Z,986.99
2018-03-03T11:56:49.231Z,986.92
2018-03-03T11:57:49.202Z,986.93
2018-03-03T11:58:49.185Z,986.86
2018-03-03T11:59:49.293Z,986.85
2018-03-03T12:00:49.151Z,986.84
2018-03-03T12:01:49.153Z,986.87
2018-03-03T12:02:49.128Z,986.89
2018-03-03T12:03:49.115Z,986.91
2018-03-03T12:04:49.109Z,986.96
2018-03-03T12:05:49.139Z,986.95
2018-03-03T12:06:49.067Z,986.88
2018-03-03T12:07:49.061Z,986.90
2018-03-03T12:08:49.047Z,986.93
2018-03-03T12:09:49.037Z,986.90
2018-03-03T12:10:49.013Z,986.88
2018-03-03T12:11:49.024Z,986.87
2018-03-03T12:12:48.994Z,986.88
2018-03-03T12:13:48.983Z,986.80
2018-03-03T12:14:48.959Z,986.78
2018-03-03T12:15:48.950Z,986.76
2018-03-03T12:16:49.016Z,986.77
2018-03-03T12:17:48.929Z,986.82
2018-03-03T12:18:48.914Z,986.83
2018-03-03T12:19:48.897Z,986.80
2018-03-03T12:20:48.885Z,986.80
2018-03-03T12:21:48.877Z,986.81
2018-03-03T12:22:48.887Z,986.74
2018-03-03T12:23:48.845Z,986.76
2018-03-03T12:24:48.828Z,986.76
2018-03-03T12:25:48.814Z,986.74
2018-03-03T12:26:48.812Z,986.75
2018-03-03T12:27:48.798Z,986.81